createdAt,value
2017-08-12T00:00:18.689Z,22.98
2017-08-12T00:02:46.210Z,22.99
2017-08-12T00:05:13.765Z,22.99
2017-08-12T00:07:41.281Z,22.98
2017-08-12T00:10:08.914Z,22.98
2017-08-12T00:12:36.466Z,22.97
2017-08-12T00:15:03.988Z,22.97
2017-08-12T00:17:31.538Z,22.93
2017-08-12T00:19:59.059Z,22.96
2017-08-12T00:22:26.604Z,22.96
2017-08-12T00:24:54.126Z,22.93
2017-08-12T00:27:21.692Z,22.96
2017-08-12T00:29:49.241Z,22.97
2017-08-12T00:32:16.810Z,22.96
2017-08-12T00:34:44.349Z,22.97
2017-08-12T00:37:11.901Z,22.93
2017-08-12T00:39:39.471Z,22.96
2017-08-12T00:42:06.997Z,22.93
2017-08-12T00:44:34.553Z,22.95
2017-08-12T00:47:02.081Z,22.97
2017-08-12T00:49:29.648Z,22.96
2017-08-12T00:51:57.169Z,22.95
2017-08-12T00:54:24.690Z,22.95
2017-08-12T00:56:52.264Z,22.94
2017-08-12T00:59:19.825Z,22.96
2017-08-12T01:01:47.395Z,22.95
2017-08-12T01:04:14.943Z,22.94
2017-08-12T01:06:42.505Z,22.94
2017-08-12T01:09:10.027Z,22.94
2017-08-12T01:11:37.559Z,22.95
2017-08-12T01:14:05.117Z,22.93
2017-08-12T01:16:32.636Z,22.94
2017-08-12T01:19:00.191Z,22.94
2017-08-12T01:21:27.714Z,22.94
2017-08-12T01:23:55.237Z,22.94
2017-08-12T01:26:22.806Z,22.93
2017-08-12T01:28:50.331Z,22.93
2017-08-12T01:31:17.916Z,22.93
2017-08-12T01:33:45.435Z,22.90
2017-08-12T01:36:12.971Z,22.92
2017-08-12T01:38:40.573Z,22.91
2017-08-12T01:41:08.103Z,22.91
2017-08-12T01:43:35.664Z,22.91
2017-08-12T01:46:03.227Z,22.91
2017-08-12T01:48:30.780Z,22.87
2017-08-12T01:50:58.306Z,22.90
2017-08-12T01:53:25.831Z,22.88
2017-08-12T01:55:53.388Z,22.86
2017-08-12T01:58:20.915Z,22.86
2017-08-12T02:00:48.472Z,22.88
2017-08-12T02:03:15.992Z,22.85
2017-08-12T02:05:43.571Z,22.87
2017-08-12T02:08:11.124Z,22.85
2017-08-12T02:10:38.638Z,22.87
2017-08-12T02:13:06.187Z,22.86
2017-08-12T02:15:33.702Z,22.83
2017-08-12T02:18:01.269Z,22.82
2017-08-12T02:20:28.800Z,22.82
2017-08-12T02:22:56.324Z,22.86
2017-08-12T02:25:23.950Z,22.87
2017-08-12T02:27:51.493Z,22.87
2017-08-12T02:30:19.079Z,22.85
2017-08-12T02:32:46.598Z,22.86
2017-08-12T02:35:14.113Z,22.87
2017-08-12T02:37:41.664Z,22.88
2017-08-12T02:40:09.188Z,22.87
2017-08-12T02:42:36.749Z,22.87
2017-08-12T02:45:04.315Z,22.85
2017-08-12T02:47:31.892Z,22.84
2017-08-12T02:49:59.464Z,22.83
2017-08-12T02:52:26.994Z,22.84
2017-08-12T02:54:54.548Z,22.83
2017-08-12T02:57:22.084Z,22.84
2017-08-12T02:59:49.635Z,22.85
2017-08-12T03:02:17.148Z,22.86
2017-08-12T03:04:44.692Z,22.85
2017-08-12T03:07:12.247Z,22.86
2017-08-12T03:09:39.806Z,22.86
2017-08-12T03:12:07.365Z,22.85
2017-08-12T03:14:34.882Z,22.85
2017-08-12T03:17:02.429Z,22.84
2017-08-12T03:19:29.941Z,22.85
2017-08-12T03:21:57.530Z,22.85
2017-08-12T03:24:25.061Z,22.82
2017-08-12T03:26:52.568Z,22.83
2017-08-12T03:29:20.123Z,22.84
2017-08-12T03:31:47.641Z,22.83
2017-08-12T03:34:15.197Z,22.83
2017-08-12T03:36:42.705Z,22.83
2017-08-12T03:39:10.263Z,22.82
2017-08-12T03:41:37.782Z,22.81
2017-08-12T03:44:05.370Z,22.80
2017-08-12T03:46:32.928Z,22.81
2017-08-12T03:49:00.445Z,22.82
2017-08-12T03:51:28.082Z,22.84
2017-08-12T03:53:55.604Z,22.84
2017-08-12T03:56:23.162Z,22.83
2017-08-12T03:58:50.677Z,22.83
2017-08-12T04:01:18.189Z,22.82
2017-08-12T04:03:45.770Z,22.82
2017-08-12T04:06:13.289Z,22.79
2017-08-12T04:08:40.802Z,22.79
2017-08-12T04:11:08.353Z,22.77
2017-08-12T04:13:35.875Z,22.74
2017-08-12T04:16:03.388Z,22.75
2017-08-12T04:18:30.946Z,22.76
2017-08-12T04:20:58.496Z,22.78
2017-08-12T04:23:26.058Z,22.78
2017-08-12T04:25:53.567Z,22.78
2017-08-12T04:28:21.079Z,22.79
2017-08-12T04:30:48.629Z,22.77
2017-08-12T04:33:16.137Z,22.77
2017-08-12T04:35:43.718Z,22.78
2017-08-12T04:38:11.259Z,22.78
2017-08-12T04:40:38.829Z,22.77
2017-08-12T04:43:06.345Z,22.76
2017-08-12T04:45:33.984Z,22.76
2017-08-12T04:48:01.496Z,22.75
2017-08-12T04:50:29.015Z,22.74
2017-08-12T04:52:56.586Z,22.71
2017-08-12T04:55:24.118Z,22.74
2017-08-12T04:57:51.674Z,22.74
2017-08-12T05:00:19.192Z,22.77
2017-08-12T05:02:46.744Z,22.77
2017-08-12T17:52:55.334Z,22.81
2017-08-12T17:55:22.865Z,22.87
2017-08-12T17:57:50.429Z,22.91
2017-08-12T18:00:20.318Z,23.00
2017-08-12T18:02:48.363Z,23.04
2017-08-12T18:05:16.853Z,23.07
2017-08-12T18:07:44.706Z,23.11
2017-08-12T18:10:13.233Z,23.15
2017-08-12T18:12:42.233Z,23.18
2017-08-12T18:15:11.490Z,23.18
2017-08-12T18:17:39.856Z,23.20
2017-08-12T18:20:08.181Z,23.23
2017-08-12T18:22:35.831Z,23.28
2017-08-12T18:25:03.774Z,23.29
2017-08-12T18:27:31.870Z,23.31
2017-08-12T18:30:00.015Z,23.33
2017-08-12T18:32:27.647Z,23.33
2017-08-12T18:34:55.368Z,23.31
2017-08-12T18:37:23.777Z,23.31
2017-08-12T18:39:51.586Z,23.28
2017-08-12T18:42:19.443Z,23.33
2017-08-12T18:44:47.493Z,23.34
2017-08-12T18:47:15.322Z,23.36
2017-08-12T18:49:42.849Z,23.37
2017-08-12T18:52:10.402Z,23.37
2017-08-12T18:54:37.929Z,23.40
2017-08-12T18:57:05.497Z,23.39
2017-08-12T18:59:33.431Z,23.43
2017-08-12T19:02:01.362Z,23.43
2017-08-12T19:04:29.452Z,23.42
2017-08-12T19:06:57.300Z,23.42
2017-08-12T19:09:25.674Z,23.42
2017-08-12T19:11:53.857Z,23.42
2017-08-12T19:14:21.702Z,23.43
2017-08-12T19:16:49.483Z,23.43
2017-08-12T19:19:20.426Z,23.45
2017-08-12T19:21:48.494Z,23.46
2017-08-12T19:24:16.876Z,23.49
2017-08-12T19:26:44.771Z,23.52
2017-08-12T19:29:12.608Z,23.54
2017-08-12T19:31:40.669Z,23.57
2017-08-12T19:34:08.330Z,23.57
2017-08-12T19:36:36.197Z,23.57
2017-08-12T19:39:04.054Z,23.58
2017-08-12T19:41:31.725Z,23.60
2017-08-12T19:43:59.795Z,23.60
2017-08-12T19:46:27.714Z,23.62
2017-08-12T19:48:55.360Z,23.62
2017-08-12T19:51:23.295Z,23.61
2017-08-12T19:53:51.369Z,23.59
